Time;durP1;ratioP1;P1;durP2;ratioP2;P2;SDS_P1;SDS_P2;PMS_P1;PMS_P2;Temp;Humidity;BMP_temperature;BMP_pressure;BME280_temperature;BME280_humidity;BME280_pressure;Samples;Min_cycle;Max_cycle;Signal;HPM_P1;HPM_P2
2022/11/23 00:01:25;;;;;;;3.45;0.95;;;12.10;99.90;;;;;;5021471;28;20455;-72
2022/11/23 00:03:56;;;;;;;3.10;0.85;;;12.10;99.90;;;;;;5003469;28;20064;-72
2022/11/23 00:06:23;;;;;;;2.92;0.93;;;12.10;99.90;;;;;;5022881;28;20147;-73
2022/11/23 00:08:50;;;;;;;5.78;1.52;;;12.10;99.90;;;;;;5027198;28;20483;-72
2022/11/23 00:11:16;;;;;;;4.38;1.17;;;12.10;99.90;;;;;;5025071;28;20045;-72
2022/11/23 00:13:42;;;;;;;3.47;1.20;;;12.10;99.90;;;;;;5020716;28;20056;-72
2022/11/23 00:16:12;;;;;;;4.43;0.95;;;12.10;99.90;;;;;;5021734;28;20064;-72
2022/11/23 00:18:38;;;;;;;3.25;1.17;;;12.00;99.90;;;;;;5029130;28;20038;-73
2022/11/23 00:21:08;;;;;;;4.03;1.10;;;12.00;99.90;;;;;;5014553;28;20106;-72
2022/11/23 00:23:35;;;;;;;3.85;0.90;;;12.00;99.90;;;;;;5025865;28;20120;-72
2022/11/23 00:26:00;;;;;;;2.42;0.93;;;12.00;99.90;;;;;;5027175;28;20048;-72
2022/11/23 00:28:26;;;;;;;4.32;1.38;;;12.10;99.90;;;;;;5019889;28;20385;-73
2022/11/23 00:30:52;;;;;;;3.72;1.02;;;12.10;99.90;;;;;;5009595;28;20080;-72
2022/11/23 00:33:18;;;;;;;3.70;1.25;;;12.10;99.90;;;;;;5015096;28;20045;-73
2022/11/23 00:35:44;;;;;;;4.00;1.00;;;12.10;99.90;;;;;;5024548;28;20029;-72
2022/11/23 00:38:10;;;;;;;2.63;1.15;;;12.10;99.90;;;;;;5021660;28;20038;-72
2022/11/23 00:40:36;;;;;;;3.55;1.42;;;12.20;99.90;;;;;;5022888;28;20372;-72
2022/11/23 00:43:02;;;;;;;2.65;0.85;;;12.20;99.90;;;;;;5022471;28;20033;-71
2022/11/23 00:45:27;;;;;;;4.00;1.15;;;12.10;99.90;;;;;;5003917;28;20172;-73
2022/11/23 00:47:53;;;;;;;4.25;1.10;;;12.20;99.90;;;;;;5024715;28;20145;-72
2022/11/23 00:50:19;;;;;;;3.47;1.20;;;12.20;99.90;;;;;;5018287;28;20195;-72
2022/11/23 00:52:45;;;;;;;4.03;1.40;;;12.20;99.90;;;;;;5023177;28;20029;-73
2022/11/23 00:55:10;;;;;;;4.50;1.20;;;12.20;99.90;;;;;;5020609;28;20053;-72
2022/11/23 00:57:36;;;;;;;3.30;1.10;;;12.10;99.90;;;;;;5021818;28;20038;-73
2022/11/23 01:00:04;;;;;;;3.03;1.27;;;12.20;99.90;;;;;;5023307;28;20042;-73
2022/11/23 01:02:30;;;;;;;4.70;1.27;;;12.10;99.90;;;;;;5034392;28;20037;-72
2022/11/23 01:04:56;;;;;;;3.25;1.00;;;12.10;99.90;;;;;;5024134;28;20034;-73
2022/11/23 01:07:22;;;;;;;6.55;1.17;;;12.10;99.90;;;;;;5017302;28;20030;-71
2022/11/23 01:09:48;;;;;;;4.32;1.25;;;12.10;99.90;;;;;;5021296;28;20041;-73
2022/11/23 01:12:14;;;;;;;5.53;1.00;;;12.20;99.90;;;;;;5015537;28;20057;-73
2022/11/23 01:14:40;;;;;;;3.08;0.88;;;12.10;99.90;;;;;;5021421;28;20046;-73
2022/11/23 01:17:05;;;;;;;2.78;0.90;;;12.10;99.90;;;;;;5022574;28;20558;-72
2022/11/23 01:19:31;;;;;;;3.42;1.00;;;12.10;99.90;;;;;;5020775;28;20129;-74
2022/11/23 01:21:57;;;;;;;4.47;1.20;;;12.10;99.90;;;;;;5020393;28;20049;-72
2022/11/23 01:24:23;;;;;;;3.83;1.00;;;12.20;99.90;;;;;;5017378;28;20042;-75
2022/11/23 01:26:53;;;;;;;4.38;1.30;;;12.20;99.90;;;;;;5019262;28;20064;-72
2022/11/23 01:29:19;;;;;;;3.25;1.00;;;12.20;99.90;;;;;;5036554;28;20061;-72
2022/11/23 01:31:45;;;;;;;3.72;1.02;;;12.20;99.90;;;;;;5017973;28;20056;-73
2022/11/23 01:34:13;;;;;;;3.00;0.90;;;12.20;99.90;;;;;;5022139;28;20780;-72
2022/11/23 01:36:39;;;;;;;2.63;1.10;;;12.20;99.90;;;;;;5022550;28;20083;-72
2022/11/23 01:39:05;;;;;;;2.70;0.77;;;12.20;99.90;;;;;;5014102;28;20037;-73
2022/11/23 01:41:34;;;;;;;3.85;1.05;;;12.20;99.90;;;;;;5024495;28;20109;-73
2022/11/23 01:44:19;;;;;;;3.42;1.08;;;12.10;99.90;;;;;;5015960;28;20040;-73
2022/11/23 01:46:45;;;;;;;3.30;0.95;;;12.10;99.90;;;;;;5019748;28;20041;-73
2022/11/23 01:49:12;;;;;;;4.93;1.30;;;12.00;99.90;;;;;;5021547;28;20041;-72
2022/11/23 01:51:43;;;;;;;3.47;1.10;;;12.00;99.90;;;;;;5025937;28;20095;-73
2022/11/23 01:54:17;;;;;;;2.90;1.05;;;12.00;99.90;;;;;;5022858;28;20194;-73
2022/11/23 01:56:51;;;;;;;4.65;1.05;;;12.00;99.90;;;;;;5024885;28;20068;-72
2022/11/23 01:59:18;;;;;;;3.78;1.25;;;12.00;99.90;;;;;;5021034;28;20036;-72
2022/11/23 02:01:44;;;;;;;4.68;1.83;;;12.00;99.90;;;;;;5019010;28;20417;-72
2022/11/23 02:04:34;;;;;;;3.13;1.08;;;12.00;99.90;;;;;;4996926;28;20034;-72
2022/11/23 02:07:02;;;;;;;4.57;1.42;;;12.00;99.90;;;;;;5005591;28;20107;-72
2022/11/23 02:09:32;;;;;;;3.78;1.02;;;12.00;99.90;;;;;;5017756;28;20038;-73
2022/11/23 02:12:00;;;;;;;3.50;1.13;;;12.00;99.90;;;;;;5025527;28;20047;-72
2022/11/23 02:14:26;;;;;;;3.65;1.40;;;12.10;99.90;;;;;;5019916;28;20112;-72
2022/11/23 02:16:57;;;;;;;3.75;1.20;;;12.10;99.90;;;;;;5027203;28;20025;-72
2022/11/23 02:19:54;;;;;;;4.53;1.45;;;12.20;99.90;;;;;;5024703;28;20428;-72
2022/11/23 02:22:37;;;;;;;4.22;1.00;;;12.30;99.90;;;;;;5033788;28;20715;-72
2022/11/23 02:25:12;;;;;;;4.75;1.20;;;12.30;99.90;;;;;;5019889;28;20095;-73
2022/11/23 02:27:39;;;;;;;4.72;1.30;;;12.30;99.90;;;;;;5020869;28;20500;-72
2022/11/23 02:30:06;;;;;;;3.00;0.90;;;12.30;99.90;;;;;;5023855;28;20052;-72
2022/11/23 02:32:33;;;;;;;4.28;1.48;;;12.30;99.90;;;;;;5022192;28;20041;-72
2022/11/23 02:34:58;;;;;;;3.92;1.25;;;12.30;99.90;;;;;;5016589;28;20747;-72
2022/11/23 02:37:24;;;;;;;3.70;1.20;;;12.30;99.90;;;;;;5021396;28;20048;-75
2022/11/23 02:39:53;;;;;;;4.32;0.95;;;12.30;99.90;;;;;;5017972;28;20515;-72
2022/11/23 02:42:19;;;;;;;4.80;1.25;;;12.40;99.90;;;;;;5016087;28;20543;-74
2022/11/23 02:45:00;;;;;;;3.08;1.08;;;12.30;99.90;;;;;;5018512;28;20041;-72
2022/11/23 02:47:26;;;;;;;3.13;1.25;;;12.40;99.90;;;;;;5016443;28;20064;-71
2022/11/23 02:49:52;;;;;;;4.75;1.20;;;12.30;99.90;;;;;;5026678;28;20042;-73
2022/11/23 02:52:18;;;;;;;2.90;0.98;;;12.30;99.90;;;;;;5020403;28;20041;-72
2022/11/23 02:54:44;;;;;;;3.67;1.30;;;12.30;99.90;;;;;;5014676;28;20873;-72
2022/11/23 02:57:10;;;;;;;3.28;0.80;;;12.30;99.90;;;;;;5019892;28;20120;-72
2022/11/23 02:59:38;;;;;;;2.78;0.90;;;12.30;99.90;;;;;;5020297;28;20129;-72
2022/11/23 03:02:05;;;;;;;2.65;0.90;;;12.40;99.90;;;;;;5020797;28;20037;-73
2022/11/23 03:04:31;;;;;;;3.17;1.10;;;12.50;99.90;;;;;;5023894;28;20034;-73
2022/11/23 03:06:57;;;;;;;3.85;1.23;;;12.40;99.90;;;;;;5022407;28;20044;-72
2022/11/23 03:09:24;;;;;;;4.55;0.98;;;12.50;99.90;;;;;;5021531;28;20041;-72
2022/11/23 03:11:51;;;;;;;2.13;0.77;;;12.40;99.90;;;;;;5013123;28;20087;-72
2022/11/23 03:14:18;;;;;;;4.07;1.20;;;12.50;99.90;;;;;;5020576;28;20038;-73
2022/11/23 03:16:45;;;;;;;3.95;1.10;;;12.40;99.90;;;;;;5020757;28;20038;-73
2022/11/23 03:19:11;;;;;;;5.15;1.30;;;12.40;99.90;;;;;;5024284;28;20030;-72
2022/11/23 03:21:37;;;;;;;4.88;1.10;;;12.40;99.90;;;;;;5027639;28;20029;-72
2022/11/23 03:24:03;;;;;;;3.40;0.80;;;12.40;99.90;;;;;;5020203;28;20046;-73
2022/11/23 03:26:30;;;;;;;3.17;1.10;;;12.60;99.90;;;;;;5020665;28;20116;-73
2022/11/23 03:28:57;;;;;;;3.08;0.93;;;12.60;99.90;;;;;;5024562;28;20038;-72
2022/11/23 03:31:23;;;;;;;2.30;0.70;;;12.70;99.90;;;;;;5023557;28;20108;-72
2022/11/23 03:33:49;;;;;;;2.47;0.80;;;12.80;99.90;;;;;;5027634;28;20120;-73
2022/11/23 03:36:15;;;;;;;4.25;1.20;;;12.80;99.90;;;;;;5019305;28;20540;-71
2022/11/23 03:38:42;;;;;;;3.13;0.63;;;12.80;99.90;;;;;;5039182;28;20044;-73
2022/11/23 03:41:09;;;;;;;2.38;1.00;;;13.00;99.90;;;;;;5025615;28;20026;-72
2022/11/23 03:43:35;;;;;;;3.80;1.05;;;13.00;99.90;;;;;;5026019;28;20059;-72
2022/11/23 03:46:01;;;;;;;2.20;0.70;;;13.00;99.90;;;;;;5023582;28;20045;-72
2022/11/23 03:48:27;;;;;;;2.47;0.70;;;12.90;99.90;;;;;;5027099;28;20511;-72
2022/11/23 03:50:53;;;;;;;2.30;0.80;;;12.90;99.90;;;;;;5027763;28;20077;-72
2022/11/23 03:53:21;;;;;;;2.90;0.90;;;12.80;99.90;;;;;;5023252;28;20063;-72
2022/11/23 03:55:46;;;;;;;3.05;0.98;;;12.80;99.90;;;;;;5022463;28;20041;-71
2022/11/23 03:58:13;;;;;;;2.75;0.95;;;12.70;99.90;;;;;;5020235;28;20106;-72
2022/11/23 04:00:41;;;;;;;3.08;1.00;;;12.70;99.90;;;;;;5023587;28;20127;-73
2022/11/23 04:03:08;;;;;;;3.05;0.90;;;12.70;99.90;;;;;;5024347;28;20056;-71
2022/11/23 04:05:34;;;;;;;;;;;12.60;99.90;;;;;;5029041;28;20082;-72
2022/11/23 04:08:00;;;;;;;4.03;1.02;;;12.60;99.90;;;;;;5022758;28;19945;-72
2022/11/23 04:10:25;;;;;;;4.32;1.15;;;12.60;99.90;;;;;;5022782;28;20041;-72
2022/11/23 04:12:52;;;;;;;3.55;0.93;;;12.60;99.90;;;;;;5023902;28;20818;-72
2022/11/23 04:15:18;;;;;;;2.97;1.13;;;12.60;99.90;;;;;;5020545;28;20048;-73
2022/11/23 04:17:44;;;;;;;5.88;1.73;;;12.60;99.90;;;;;;5023181;28;20440;-73
2022/11/23 04:20:10;;;;;;;3.03;1.15;;;12.70;99.90;;;;;;5019986;28;20144;-73
2022/11/23 04:22:36;;;;;;;3.72;1.20;;;12.70;99.90;;;;;;5008451;28;20115;-72
2022/11/23 04:25:04;;;;;;;3.25;1.35;;;12.70;99.90;;;;;;5022481;28;20081;-73
2022/11/23 04:27:29;;;;;;;4.22;1.40;;;12.60;99.90;;;;;;5023013;28;20033;-72
2022/11/23 04:29:56;;;;;;;3.83;1.30;;;12.60;99.90;;;;;;5017593;28;20045;-72
2022/11/23 04:32:22;;;;;;;3.10;1.67;;;12.60;99.90;;;;;;5025795;28;20392;-72
2022/11/23 04:34:48;;;;;;;3.67;1.25;;;12.60;99.90;;;;;;5020153;28;20042;-72
2022/11/23 04:37:14;;;;;;;3.70;1.08;;;12.60;99.90;;;;;;5020898;28;20038;-72
2022/11/23 04:39:40;;;;;;;3.80;1.10;;;12.60;99.90;;;;;;5022872;28;20046;-73
2022/11/23 04:42:06;;;;;;;3.13;1.08;;;12.70;99.90;;;;;;5027269;28;20527;-72
2022/11/23 04:44:32;;;;;;;3.85;1.10;;;12.80;99.90;;;;;;5026087;28;20034;-73
2022/11/23 04:46:59;;;;;;;2.42;0.88;;;12.80;99.90;;;;;;5022296;28;20035;-72
2022/11/23 04:49:25;;;;;;;2.83;0.90;;;12.80;99.90;;;;;;5019345;28;20046;-71
2022/11/23 04:51:50;;;;;;;4.20;1.05;;;12.90;99.90;;;;;;5023700;28;20030;-72
2022/11/23 04:54:16;;;;;;;3.08;1.00;;;12.90;99.90;;;;;;5018036;28;20038;-72
2022/11/23 04:56:42;;;;;;;3.40;1.10;;;12.90;99.90;;;;;;5023699;28;20034;-71
2022/11/23 04:59:08;;;;;;;3.67;1.10;;;13.00;99.90;;;;;;5025716;28;20041;-72
2022/11/23 05:01:34;;;;;;;1.67;0.57;;;13.00;99.90;;;;;;5018809;28;20044;-72
2022/11/23 05:04:00;;;;;;;2.97;0.90;;;13.00;99.90;;;;;;5018332;28;20048;-72
2022/11/23 05:06:26;;;;;;;2.22;0.75;;;13.10;99.90;;;;;;5022320;28;20503;-73
2022/11/23 05:08:52;;;;;;;3.45;0.80;;;13.20;99.90;;;;;;5018077;28;20041;-71
2022/11/23 05:11:18;;;;;;;1.85;0.50;;;13.20;99.90;;;;;;5019079;28;20132;-72
2022/11/23 05:13:44;;;;;;;3.45;0.90;;;13.20;99.90;;;;;;5020911;28;20129;-72
2022/11/23 05:16:10;;;;;;;4.05;1.00;;;13.20;99.90;;;;;;5019176;28;20187;-72
2022/11/23 05:18:36;;;;;;;3.78;0.70;;;13.20;99.90;;;;;;5019798;28;20036;-72
2022/11/23 05:21:01;;;;;;;2.58;0.90;;;13.10;99.90;;;;;;5016349;28;20051;-73
2022/11/23 05:23:27;;;;;;;3.33;1.00;;;13.10;99.90;;;;;;5023665;28;20453;-73
2022/11/23 05:25:53;;;;;;;3.13;0.98;;;13.10;99.90;;;;;;5018953;28;20471;-73
2022/11/23 05:28:20;;;;;;;2.63;1.02;;;13.20;99.90;;;;;;5020552;28;20396;-73
2022/11/23 05:30:47;;;;;;;4.40;0.82;;;13.20;99.90;;;;;;5022393;28;20447;-74
2022/11/23 05:33:13;;;;;;;3.55;1.17;;;13.20;99.90;;;;;;5020183;28;20029;-72
2022/11/23 05:35:38;;;;;;;3.03;0.80;;;13.20;99.90;;;;;;5019146;28;20034;-72
2022/11/23 05:38:05;;;;;;;2.65;0.75;;;13.10;99.90;;;;;;5017630;28;20041;-72
2022/11/23 05:40:31;;;;;;;3.38;0.80;;;13.10;99.90;;;;;;5001644;28;20033;-72
2022/11/23 05:42:58;;;;;;;2.30;0.80;;;13.00;99.90;;;;;;5017812;28;20110;-73
2022/11/23 05:45:25;;;;;;;3.47;0.80;;;13.00;99.90;;;;;;5020634;28;20102;-72
2022/11/23 05:47:51;;;;;;;;;;;13.10;99.90;;;;;;5020640;28;20038;-73
2022/11/23 05:50:18;;;;;;;2.63;0.70;;;13.20;99.90;;;;;;5023266;28;19921;-73
2022/11/23 05:52:43;;;;;;;2.65;0.60;;;13.20;99.90;;;;;;5018203;28;20056;-72
2022/11/23 05:55:09;;;;;;;2.70;0.70;;;13.20;99.90;;;;;;5024290;28;20042;-72
2022/11/23 05:57:35;;;;;;;2.17;0.60;;;13.20;99.90;;;;;;5022918;28;20041;-74
2022/11/23 06:00:04;;;;;;;2.83;0.60;;;13.30;99.90;;;;;;5020020;28;20032;-72
2022/11/23 06:02:29;;;;;;;2.13;0.80;;;13.20;99.90;;;;;;5015100;28;20411;-73
2022/11/23 06:04:55;;;;;;;2.67;0.60;;;13.20;99.90;;;;;;5000052;28;20123;-72
2022/11/23 06:07:21;;;;;;;2.83;0.90;;;13.30;99.90;;;;;;5017793;28;20404;-73
2022/11/23 06:09:47;;;;;;;1.98;0.50;;;13.40;99.90;;;;;;5034366;28;20115;-72
2022/11/23 06:12:12;;;;;;;2.50;0.60;;;13.50;99.90;;;;;;5019558;28;20481;-73
2022/11/23 06:14:39;;;;;;;2.10;0.40;;;13.50;99.90;;;;;;5022206;28;20551;-73
2022/11/23 06:17:04;;;;;;;1.40;0.40;;;13.60;99.90;;;;;;5013031;28;20022;-73
2022/11/23 06:19:30;;;;;;;3.15;0.60;;;13.50;99.90;;;;;;5034025;28;20492;-74
2022/11/23 06:21:56;;;;;;;2.70;0.57;;;13.60;99.90;;;;;;5020749;28;20029;-74
2022/11/23 06:24:23;;;;;;;2.40;0.70;;;13.60;99.90;;;;;;5018995;28;20040;-73
2022/11/23 06:26:51;;;;;;;2.05;0.40;;;13.60;99.90;;;;;;5024740;28;20038;-71
2022/11/23 06:29:17;;;;;;;2.80;0.60;;;13.50;99.90;;;;;;5016265;28;20523;-73
2022/11/23 06:31:44;;;;;;;1.67;0.60;;;13.50;99.90;;;;;;5019510;28;20059;-73
2022/11/23 06:34:10;;;;;;;2.10;0.68;;;13.40;99.90;;;;;;5017786;28;20639;-74
2022/11/23 06:36:35;;;;;;;2.90;0.57;;;13.30;99.90;;;;;;5030417;28;20216;-75
2022/11/23 06:39:02;;;;;;;2.85;0.68;;;13.40;99.90;;;;;;5024822;28;20077;-75
2022/11/23 06:41:28;;;;;;;2.72;1.00;;;13.40;99.90;;;;;;5024725;28;20034;-76
2022/11/23 06:43:53;;;;;;;2.75;0.60;;;13.50;99.90;;;;;;5027927;28;20125;-75
2022/11/23 06:46:19;;;;;;;4.43;0.70;;;13.40;99.90;;;;;;5025005;28;20046;-75
2022/11/23 06:48:46;;;;;;;2.05;0.70;;;13.50;99.90;;;;;;5042289;28;20045;-75
2022/11/23 06:51:13;;;;;;;2.17;0.60;;;13.50;99.90;;;;;;5030236;28;20044;-75
2022/11/23 06:53:39;;;;;;;2.20;0.60;;;13.50;99.90;;;;;;5033948;28;20038;-75
2022/11/23 06:56:07;;;;;;;4.10;0.73;;;13.50;99.90;;;;;;5028800;28;20034;-75
2022/11/23 06:58:33;;;;;;;3.53;1.00;;;13.50;99.90;;;;;;5027343;28;20037;-74
2022/11/23 07:01:01;;;;;;;3.08;1.20;;;13.60;99.90;;;;;;5023218;28;20447;-75
2022/11/23 07:03:27;;;;;;;3.33;1.17;;;13.60;99.90;;;;;;5024560;28;20358;-75
2022/11/23 07:05:53;;;;;;;3.50;0.63;;;13.60;99.90;;;;;;5020960;28;20123;-74
2022/11/23 07:08:19;;;;;;;3.28;0.90;;;13.70;99.90;;;;;;5025063;28;20068;-73
2022/11/23 07:10:44;;;;;;;2.80;0.90;;;13.70;99.90;;;;;;5020377;28;20140;-75
2022/11/23 07:13:11;;;;;;;6.07;1.55;;;13.70;99.90;;;;;;5016932;28;20040;-75
2022/11/23 07:15:37;;;;;;;4.38;1.23;;;13.80;99.90;;;;;;5026789;28;20046;-75
2022/11/23 07:18:04;;;;;;;3.80;1.00;;;13.80;99.90;;;;;;5025260;28;20547;-77
2022/11/23 07:20:31;;;;;;;2.00;0.70;;;13.80;99.90;;;;;;5024341;28;20140;-75
2022/11/23 07:23:00;;;;;;;10.63;0.57;;;13.80;99.90;;;;;;5027762;28;20038;-75
2022/11/23 07:25:27;;;;;;;3.47;0.70;;;13.80;99.90;;;;;;5028683;28;20041;-74
2022/11/23 07:27:56;;;;;;;;;;;13.80;99.90;;;;;;5026123;28;20049;-75
2022/11/23 07:30:24;;;;;;;3.10;0.80;;;13.80;99.90;;;;;;5027081;28;19964;-77
2022/11/23 07:32:50;;;;;;;3.00;0.88;;;13.90;99.90;;;;;;5022479;28;20029;-75
2022/11/23 07:35:17;;;;;;;3.08;0.88;;;13.90;99.90;;;;;;5026168;28;20038;-75
2022/11/23 07:37:42;;;;;;;;;;;14.00;99.90;;;;;;5022386;28;20039;-75
2022/11/23 07:40:09;;;;;;;2.33;0.80;;;14.00;99.90;;;;;;5019861;28;20372;-75
2022/11/23 07:42:35;;;;;;;1.90;0.50;;;14.10;99.90;;;;;;5024306;28;20037;-74
2022/11/23 07:45:02;;;;;;;3.47;1.00;;;14.30;99.90;;;;;;5034622;28;20069;-75
2022/11/23 07:47:28;;;;;;;5.13;1.20;;;14.30;99.90;;;;;;5032899;28;20038;-74
2022/11/23 07:49:54;;;;;;;2.28;0.57;;;14.40;99.90;;;;;;5029838;28;20069;-75
2022/11/23 07:52:20;;;;;;;3.15;0.85;;;14.50;99.90;;;;;;5030591;28;20045;-74
2022/11/23 07:54:45;;;;;;;3.63;1.02;;;14.60;99.90;;;;;;5026251;28;20050;-74
2022/11/23 07:57:11;;;;;;;5.57;0.90;;;14.60;99.90;;;;;;5025239;28;20064;-75
2022/11/23 07:59:38;;;;;;;8.50;1.38;;;14.70;99.90;;;;;;5025733;28;20061;-74
2022/11/23 08:02:04;;;;;;;2.95;0.85;;;14.80;99.90;;;;;;5027907;28;20041;-75
2022/11/23 08:04:30;;;;;;;5.13;0.90;;;14.80;99.90;;;;;;5017490;28;20038;-75
2022/11/23 08:06:56;;;;;;;3.97;0.77;;;14.80;99.90;;;;;;5033233;28;20100;-75
2022/11/23 08:09:23;;;;;;;4.63;0.80;;;14.80;99.90;;;;;;5027035;28;20124;-75
2022/11/23 08:11:49;;;;;;;5.18;1.20;;;14.80;99.90;;;;;;5031704;28;20069;-74
2022/11/23 08:14:14;;;;;;;8.27;2.08;;;15.50;99.90;;;;;;5028985;28;20037;-75
2022/11/23 08:16:40;;;;;;;6.00;1.77;;;16.90;99.90;;;;;;5009044;28;20082;-73
2022/11/23 08:19:06;;;;;;;3.85;0.90;;;17.50;99.90;;;;;;5025783;28;20037;-73
2022/11/23 08:21:35;;;;;;;5.75;1.15;;;17.60;99.90;;;;;;5023936;28;20130;-72
2022/11/23 08:24:04;;;;;;;7.03;1.10;;;17.10;99.90;;;;;;5039027;28;20033;-74
2022/11/23 08:26:30;;;;;;;4.78;1.30;;;17.70;99.90;;;;;;5024057;28;20497;-74
2022/11/23 08:28:57;;;;;;;4.15;1.05;;;18.10;99.90;;;;;;5022877;28;20048;-74
2022/11/23 08:31:26;;;;;;;4.57;1.63;;;18.70;99.90;;;;;;5019738;28;20228;-72
2022/11/23 08:33:52;;;;;;;2.60;1.23;;;18.10;99.90;;;;;;5017067;28;20127;-72
2022/11/23 08:36:18;;;;;;;4.25;0.98;;;17.80;99.90;;;;;;5019394;28;20168;-73
2022/11/23 08:38:43;;;;;;;3.45;0.70;;;18.00;99.90;;;;;;5024944;28;20034;-74
2022/11/23 08:41:09;;;;;;;4.18;0.98;;;18.40;99.90;;;;;;5019545;28;20029;-75
2022/11/23 08:43:35;;;;;;;5.05;1.10;;;18.20;99.90;;;;;;5020737;28;20061;-73
2022/11/23 08:46:02;;;;;;;6.15;1.13;;;18.40;99.90;;;;;;5022095;28;20034;-73
2022/11/23 08:48:28;;;;;;;6.43;1.40;;;18.20;99.90;;;;;;5009790;28;20420;-72
2022/11/23 08:50:57;;;;;;;3.08;0.70;;;18.30;99.90;;;;;;5018828;28;20046;-75
2022/11/23 08:53:22;;;;;;;2.97;0.77;;;18.20;99.90;;;;;;4998073;28;20099;-75
2022/11/23 08:55:48;;;;;;;2.75;0.65;;;18.10;99.90;;;;;;5015067;28;20070;-75
2022/11/23 08:58:14;;;;;;;3.53;0.65;;;17.80;99.90;;;;;;5024272;28;20030;-76
2022/11/23 09:00:40;;;;;;;3.15;0.63;;;17.70;99.90;;;;;;5017957;28;20041;-76
2022/11/23 09:03:06;;;;;;;6.38;1.08;;;17.70;99.90;;;;;;5013687;28;20353;-75
2022/11/23 09:05:31;;;;;;;2.83;0.65;;;17.80;99.90;;;;;;5017583;28;20084;-76
2022/11/23 09:08:00;;;;;;;3.28;0.77;;;17.90;99.90;;;;;;5011555;28;20044;-76
2022/11/23 09:10:26;;;;;;;4.65;0.82;;;18.20;99.90;;;;;;5017314;28;20101;-75
2022/11/23 09:12:52;;;;;;;2.80;1.02;;;18.20;99.90;;;;;;5018621;28;20045;-76
2022/11/23 09:15:18;;;;;;;2.85;0.70;;;18.00;99.90;;;;;;5018659;28;20132;-76
2022/11/23 09:17:44;;;;;;;4.25;1.23;;;18.00;99.90;;;;;;5000942;28;20042;-76
2022/11/23 09:20:10;;;;;;;4.78;1.08;;;18.20;99.90;;;;;;5016281;28;21044;-76
2022/11/23 09:22:37;;;;;;;2.65;0.70;;;18.50;99.90;;;;;;5020698;28;20041;-75
2022/11/23 09:25:03;;;;;;;3.38;1.20;;;19.00;99.90;;;;;;5030870;28;20037;-76
2022/11/23 09:27:29;;;;;;;;;;;19.20;99.90;;;;;;5015616;28;20373;-76
2022/11/23 09:29:55;;;;;;;4.45;1.13;;;19.30;99.90;;;;;;5021134;28;19987;-76
2022/11/23 09:32:20;;;;;;;3.25;1.45;;;19.40;99.90;;;;;;5010733;28;20033;-76
2022/11/23 09:34:46;;;;;;;5.38;1.05;;;19.40;99.90;;;;;;5018510;28;20107;-75
2022/11/23 09:37:13;;;;;;;4.15;0.88;;;19.50;99.90;;;;;;5020145;28;20051;-75
2022/11/23 09:39:38;;;;;;;6.97;2.25;;;19.50;99.90;;;;;;5024123;28;20405;-75
2022/11/23 09:42:24;;;;;;;1.92;0.88;;;19.60;99.90;;;;;;5017520;28;20033;-76
2022/11/23 09:44:56;;;;;;;5.10;1.90;;;20.10;99.90;;;;;;5020256;28;20142;-76
2022/11/23 09:47:46;;;;;;;1.83;0.77;;;20.00;99.90;;;;;;5027427;28;20130;-75
2022/11/23 09:50:28;;;;;;;2.20;0.60;;;19.70;99.90;;;;;;5017385;28;20041;-76
2022/11/23 09:52:54;;;;;;;3.58;0.95;;;19.50;99.90;;;;;;5034753;28;20033;-76
2022/11/23 09:55:40;;;;;;;3.13;1.00;;;20.10;99.90;;;;;;5008807;28;20026;-76
2022/11/23 09:58:12;;;;;;;3.53;1.00;;;20.20;99.90;;;;;;5016275;28;20061;-77
2022/11/23 10:01:06;;;;;;;5.05;1.00;;;20.10;99.90;;;;;;5021142;28;20139;-76
2022/11/23 10:03:37;;;;;;;3.53;0.80;;;20.20;99.90;;;;;;5029342;28;20040;-75
2022/11/23 10:06:27;;;;;;;7.05;1.58;;;20.40;99.90;;;;;;4995012;28;20033;-76
2022/11/23 10:09:23;;;;;;;3.53;1.23;;;20.40;99.90;;;;;;5019065;28;20033;-75
2022/11/23 10:12:14;;;;;;;3.08;1.23;;;20.80;99.90;;;;;;5020181;28;20037;-74
2022/11/23 10:14:42;;;;;;;4.43;1.48;;;20.80;99.90;;;;;;5020197;28;20044;-76
2022/11/23 10:17:50;;;;;;;5.88;2.22;;;20.90;99.90;;;;;;5016376;28;20093;-76
2022/11/23 10:20:42;;;;;;;3.92;1.23;;;21.00;99.90;;;;;;5005440;28;20041;-76
2022/11/23 10:23:34;;;;;;;5.22;1.48;;;21.10;99.90;;;;;;4991045;28;20133;-76
2022/11/23 10:26:00;;;;;;;3.58;1.30;;;20.80;99.90;;;;;;5021877;28;20125;-75
2022/11/23 10:28:29;;;;;;;6.50;1.10;;;20.80;99.90;;;;;;5007343;28;20140;-75
2022/11/23 10:31:35;;;;;;;4.00;1.13;;;20.50;99.90;;;;;;5022782;28;20045;-78
2022/11/23 10:34:20;;;;;;;4.55;1.98;;;20.80;99.90;;;;;;4940888;28;20493;-76
2022/11/23 10:36:45;;;;;;;6.00;1.08;;;20.50;99.90;;;;;;4957953;28;20037;-75
2022/11/23 10:39:25;;;;;;;8.10;2.00;;;20.20;99.90;;;;;;4990339;28;20034;-77
2022/11/23 10:41:56;;;;;;;10.23;2.17;;;20.20;99.90;;;;;;5014786;28;20041;-75
2022/11/23 10:44:37;;;;;;;10.02;2.75;;;19.70;99.90;;;;;;5011395;28;20052;-76
2022/11/23 10:47:04;;;;;;;7.85;2.22;;;19.60;99.90;;;;;;5012385;28;20038;-76
2022/11/23 10:49:31;;;;;;;;;;;19.50;99.90;;;;;;5012300;28;20034;-75
2022/11/23 10:52:02;;;;;;;10.20;2.88;;;19.70;99.90;;;;;;5022294;28;20549;-76
2022/11/23 10:54:35;;;;;;;6.28;2.05;;;19.80;99.90;;;;;;5017457;28;20465;-75
2022/11/23 10:57:28;;;;;;;7.53;2.40;;;20.00;99.90;;;;;;5018262;28;20793;-76
2022/11/23 11:00:25;;;;;;;3.78;1.00;;;20.00;99.90;;;;;;5012893;28;20512;-75
2022/11/23 11:02:56;;;;;;;5.30;1.30;;;20.10;99.90;;;;;;5005432;28;20045;-76
2022/11/23 11:05:49;;;;;;;6.55;1.00;;;20.30;99.90;;;;;;5023090;28;20583;-76
2022/11/23 11:08:19;;;;;;;3.10;0.88;;;20.40;99.90;;;;;;5017976;28;20026;-77
2022/11/23 11:11:06;;;;;;;3.35;0.90;;;20.10;99.90;;;;;;5023800;28;20052;-76
2022/11/23 11:13:46;;;;;;;3.67;1.05;;;20.00;99.90;;;;;;5016134;28;20623;-77
2022/11/23 11:16:26;;;;;;;4.20;1.20;;;19.90;99.90;;;;;;5022657;28;20478;-81
2022/11/23 11:18:52;;;;;;;4.30;1.10;;;20.20;99.90;;;;;;5025282;28;20084;-78
2022/11/23 11:21:33;;;;;;;3.20;0.95;;;20.30;99.90;;;;;;5026520;28;20057;-76
2022/11/23 11:24:18;;;;;;;4.15;1.33;;;20.30;99.90;;;;;;5025063;28;20162;-76
2022/11/23 11:26:59;;;;;;;4.88;1.20;;;20.40;99.90;;;;;;5031318;28;20128;-76
2022/11/23 11:29:33;;;;;;;6.00;1.08;;;20.40;99.90;;;;;;5029209;28;20060;-77
2022/11/23 11:32:25;;;;;;;4.95;1.10;;;20.30;99.90;;;;;;5018994;28;20123;-77
2022/11/23 11:35:00;;;;;;;1.55;0.50;;;20.60;99.90;;;;;;5005712;28;20140;-76
2022/11/23 11:37:39;;;;;;;2.20;1.13;;;20.50;99.90;;;;;;5037431;28;20389;-76
2022/11/23 11:40:24;;;;;;;1.55;0.43;;;20.50;99.90;;;;;;5019869;28;20168;-77
2022/11/23 11:43:17;;;;;;;2.15;0.40;;;20.60;99.90;;;;;;5040649;28;20045;-77
2022/11/23 11:45:49;;;;;;;1.40;0.40;;;20.70;99.90;;;;;;5027915;28;20041;-77
2022/11/23 11:48:24;;;;;;;4.30;0.50;;;20.60;99.90;;;;;;5025916;28;20536;-78
2022/11/23 11:50:57;;;;;;;4.22;0.73;;;21.20;99.90;;;;;;5021848;28;20056;-78
2022/11/23 11:53:30;;;;;;;1.92;0.57;;;22.40;99.90;;;;;;5025166;28;20046;-77
2022/11/23 11:56:04;;;;;;;2.17;1.00;;;22.70;99.90;;;;;;5023582;28;20396;-78
2022/11/23 11:58:33;;;;;;;2.53;0.68;;;23.50;99.90;;;;;;5021710;28;20041;-77
2022/11/23 12:01:12;;;;;;;4.38;0.82;;;23.90;99.90;;;;;;5023878;28;20037;-77
2022/11/23 12:03:55;;;;;;;2.83;0.90;;;23.70;99.90;;;;;;5024432;28;20048;-77
2022/11/23 12:06:31;;;;;;;5.38;1.30;;;23.20;99.90;;;;;;5019257;28;21011;-77
2022/11/23 12:09:11;;;;;;;5.32;0.75;;;24.20;99.90;;;;;;5033509;28;20042;-74
2022/11/23 12:11:37;;;;;;;3.50;0.82;;;24.40;99.90;;;;;;5021139;28;20041;-72
2022/11/23 12:14:05;;;;;;;2.55;0.90;;;24.30;99.80;;;;;;5019228;28;20046;-77
2022/11/23 12:16:37;;;;;;;2.67;0.93;;;24.80;99.40;;;;;;5033335;28;20045;-77
2022/11/23 12:19:22;;;;;;;;;;;25.00;99.10;;;;;;5024914;28;20045;-76
2022/11/23 12:22:21;;;;;;;3.50;1.23;;;24.70;99.20;;;;;;5024292;28;19909;-75
2022/11/23 12:25:17;;;;;;;1.38;0.90;;;24.50;99.50;;;;;;5026206;28;20025;-77
2022/11/23 12:28:15;;;;;;;2.10;0.93;;;24.50;99.20;;;;;;5025055;28;20100;-76
2022/11/23 12:30:53;;;;;;;2.55;1.15;;;24.70;99.30;;;;;;5023346;28;20381;-76
2022/11/23 12:33:34;;;;;;;2.97;0.82;;;25.60;98.60;;;;;;5018854;28;20405;-77
2022/11/23 12:36:20;;;;;;;3.95;1.35;;;25.20;98.00;;;;;;5020271;28;20042;-76
2022/11/23 12:39:13;;;;;;;2.97;1.02;;;25.60;98.10;;;;;;5014802;28;20389;-76
2022/11/23 12:42:02;;;;;;;2.80;1.23;;;25.40;98.20;;;;;;5023699;28;20037;-77
2022/11/23 12:45:12;;;;;;;3.97;1.17;;;25.90;97.90;;;;;;5021098;28;20037;-78
2022/11/23 12:47:48;;;;;;;2.55;0.88;;;25.40;97.90;;;;;;4964438;28;20093;-76
2022/11/23 12:50:35;;;;;;;4.80;1.92;;;25.00;98.10;;;;;;5027928;28;20037;-76
2022/11/23 12:53:30;;;;;;;3.78;1.02;;;25.40;97.90;;;;;;5024276;28;20041;-77
2022/11/23 12:56:13;;;;;;;6.07;1.42;;;25.50;97.80;;;;;;4998673;28;20685;-77
2022/11/23 12:58:41;;;;;;;2.85;1.05;;;26.20;96.70;;;;;;5006156;28;20041;-77
2022/11/23 13:01:22;;;;;;;4.18;1.33;;;26.00;96.80;;;;;;5025380;28;20029;-77
2022/11/23 13:04:22;;;;;;;4.90;1.50;;;26.40;96.40;;;;;;5046382;28;20507;-78